sensor_id;sensor_type;location;lat;lon;timestamp;P1;durP1;ratioP1;P2;durP2;ratioP2
3735;SDS011;1883;48.202;16.310;2023-04-28T00:48:52;17.87;;;8.00;;
3735;SDS011;1883;48.202;16.310;2023-04-28T00:51:19;23.27;;;8.33;;
3735;SDS011;1883;48.202;16.310;2023-04-28T00:53:46;20.77;;;8.70;;
3735;SDS011;1883;48.202;16.310;2023-04-28T00:56:14;23.63;;;8.90;;
3735;SDS011;1883;48.202;16.310;2023-04-28T00:58:41;28.57;;;8.47;;
3735;SDS011;1883;48.202;16.310;2023-04-28T01:01:09;26.33;;;8.60;;
3735;SDS011;1883;48.202;16.310;2023-04-28T01:03:36;27.13;;;9.10;;
3735;SDS011;1883;48.202;16.310;2023-04-28T01:06:06;22.10;;;7.93;;
3735;SDS011;1883;48.202;16.310;2023-04-28T01:08:35;18.40;;;7.20;;
3735;SDS011;1883;48.202;16.310;2023-04-28T01:11:02;27.40;;;8.57;;
3735;SDS011;1883;48.202;16.310;2023-04-28T01:13:31;23.27;;;9.00;;
3735;SDS011;1883;48.202;16.310;2023-04-28T01:15:57;49.27;;;9.60;;
3735;SDS011;1883;48.202;16.310;2023-04-28T01:18:25;25.80;;;9.03;;
3735;SDS011;1883;48.202;16.310;2023-04-28T01:20:52;28.53;;;8.67;;
3735;SDS011;1883;48.202;16.310;2023-04-28T01:23:20;27.63;;;9.10;;
3735;SDS011;1883;48.202;16.310;2023-04-28T01:28:31;22.17;;;9.10;;
3735;SDS011;1883;48.202;16.310;2023-04-28T01:30:58;23.00;;;9.10;;
3735;SDS011;1883;48.202;16.310;2023-04-28T01:33:26;21.40;;;8.60;;
3735;SDS011;1883;48.202;16.310;2023-04-28T01:35:55;18.90;;;8.70;;
3735;SDS011;1883;48.202;16.310;2023-04-28T01:38:23;31.37;;;9.60;;
3735;SDS011;1883;48.202;16.310;2023-04-28T01:43:36;19.87;;;8.30;;
3735;SDS011;1883;48.202;16.310;2023-04-28T01:46:03;22.03;;;8.80;;
3735;SDS011;1883;48.202;16.310;2023-04-28T01:48:30;27.17;;;8.60;;
3735;SDS011;1883;48.202;16.310;2023-04-28T01:50:57;31.17;;;9.10;;
3735;SDS011;1883;48.202;16.310;2023-04-28T01:53:24;27.30;;;8.67;;
3735;SDS011;1883;48.202;16.310;2023-04-28T01:55:51;24.73;;;8.93;;
3735;SDS011;1883;48.202;16.310;2023-04-28T01:58:20;24.83;;;9.93;;
3735;SDS011;1883;48.202;16.310;2023-04-28T02:00:49;31.03;;;9.50;;
3735;SDS011;1883;48.202;16.310;2023-04-28T02:03:51;24.27;;;9.47;;
3735;SDS011;1883;48.202;16.310;2023-04-28T02:06:19;29.03;;;9.93;;
3735;SDS011;1883;48.202;16.310;2023-04-28T02:08:46;29.30;;;9.93;;
3735;SDS011;1883;48.202;16.310;2023-04-28T02:11:13;34.37;;;9.90;;
3735;SDS011;1883;48.202;16.310;2023-04-28T02:13:41;24.50;;;9.20;;
3735;SDS011;1883;48.202;16.310;2023-04-28T02:16:08;32.23;;;10.07;;
3735;SDS011;1883;48.202;16.310;2023-04-28T02:18:35;21.47;;;8.90;;
3735;SDS011;1883;48.202;16.310;2023-04-28T02:21:07;18.73;;;8.30;;
3735;SDS011;1883;48.202;16.310;2023-04-28T02:23:35;21.00;;;8.70;;
3735;SDS011;1883;48.202;16.310;2023-04-28T02:26:02;29.57;;;9.50;;
3735;SDS011;1883;48.202;16.310;2023-04-28T02:28:29;24.13;;;8.90;;
3735;SDS011;1883;48.202;16.310;2023-04-28T02:31:03;27.57;;;9.20;;
3735;SDS011;1883;48.202;16.310;2023-04-28T02:33:34;22.90;;;9.17;;
3735;SDS011;1883;48.202;16.310;2023-04-28T02:36:02;20.90;;;9.40;;
3735;SDS011;1883;48.202;16.310;2023-04-28T02:38:29;28.37;;;10.73;;
3735;SDS011;1883;48.202;16.310;2023-04-28T02:40:57;28.37;;;10.07;;
3735;SDS011;1883;48.202;16.310;2023-04-28T02:43:25;25.23;;;9.43;;
3735;SDS011;1883;48.202;16.310;2023-04-28T02:45:52;22.87;;;9.63;;
3735;SDS011;1883;48.202;16.310;2023-04-28T02:48:21;20.83;;;9.10;;
3735;SDS011;1883;48.202;16.310;2023-04-28T02:50:48;34.80;;;9.60;;
3735;SDS011;1883;48.202;16.310;2023-04-28T02:53:15;24.30;;;10.20;;
3735;SDS011;1883;48.202;16.310;2023-04-28T02:55:42;31.30;;;10.03;;
3735;SDS011;1883;48.202;16.310;2023-04-28T02:58:09;27.90;;;9.13;;
3735;SDS011;1883;48.202;16.310;2023-04-28T03:00:36;29.93;;;10.50;;
3735;SDS011;1883;48.202;16.310;2023-04-28T03:03:03;23.57;;;10.80;;
3735;SDS011;1883;48.202;16.310;2023-04-28T03:05:31;19.40;;;9.10;;
3735;SDS011;1883;48.202;16.310;2023-04-28T03:07:58;28.03;;;10.23;;
3735;SDS011;1883;48.202;16.310;2023-04-28T03:10:25;39.47;;;10.23;;
3735;SDS011;1883;48.202;16.310;2023-04-28T03:12:52;24.13;;;9.23;;
3735;SDS011;1883;48.202;16.310;2023-04-28T03:15:19;25.70;;;11.67;;
3735;SDS011;1883;48.202;16.310;2023-04-28T03:17:48;27.53;;;10.60;;
3735;SDS011;1883;48.202;16.310;2023-04-28T03:20:32;29.53;;;11.03;;
3735;SDS011;1883;48.202;16.310;2023-04-28T03:22:59;36.17;;;10.90;;
3735;SDS011;1883;48.202;16.310;2023-04-28T03:25:26;28.87;;;10.97;;
3735;SDS011;1883;48.202;16.310;2023-04-28T03:27:53;31.70;;;11.00;;
3735;SDS011;1883;48.202;16.310;2023-04-28T03:30:21;27.43;;;8.60;;
3735;SDS011;1883;48.202;16.310;2023-04-28T03:32:48;26.90;;;10.90;;
3735;SDS011;1883;48.202;16.310;2023-04-28T03:35:15;26.97;;;10.17;;
3735;SDS011;1883;48.202;16.310;2023-04-28T03:37:43;25.73;;;10.33;;
3735;SDS011;1883;48.202;16.310;2023-04-28T03:43:11;26.23;;;10.40;;
3735;SDS011;1883;48.202;16.310;2023-04-28T03:45:39;33.77;;;10.40;;
3735;SDS011;1883;48.202;16.310;2023-04-28T03:48:06;26.70;;;10.17;;
3735;SDS011;1883;48.202;16.310;2023-04-28T03:50:33;28.47;;;10.83;;
3735;SDS011;1883;48.202;16.310;2023-04-28T03:55:43;55.70;;;11.93;;
3735;SDS011;1883;48.202;16.310;2023-04-28T03:58:10;27.70;;;10.73;;
3735;SDS011;1883;48.202;16.310;2023-04-28T04:00:39;30.67;;;10.80;;
3735;SDS011;1883;48.202;16.310;2023-04-28T04:03:46;36.07;;;11.00;;
3735;SDS011;1883;48.202;16.310;2023-04-28T04:06:30;29.00;;;11.43;;
3735;SDS011;1883;48.202;16.310;2023-04-28T06:18:50;21.50;;;8.83;;
3735;SDS011;1883;48.202;16.310;2023-04-28T06:21:35;33.27;;;10.40;;
3735;SDS011;1883;48.202;16.310;2023-04-28T06:24:22;25.67;;;10.00;;
3735;SDS011;1883;48.202;16.310;2023-04-28T06:26:51;21.00;;;9.90;;
3735;SDS011;1883;48.202;16.310;2023-04-28T06:30:04;19.20;;;8.67;;
3735;SDS011;1883;48.202;16.310;2023-04-28T22:51:43;47.70;;;24.47;;
3735;SDS011;1883;48.202;16.310;2023-04-28T22:54:25;53.63;;;26.23;;
3735;SDS011;1883;48.202;16.310;2023-04-28T22:57:10;45.20;;;23.37;;
3735;SDS011;1883;48.202;16.310;2023-04-28T23:00:14;48.63;;;24.80;;
3735;SDS011;1883;48.202;16.310;2023-04-28T23:02:57;51.53;;;27.73;;
